sensor_id;sensor_type;location;lat;lon;timestamp;P1;durP1;ratioP1;P2;durP2;ratioP2
70049;SDS011;57391;51.306;22.680;2023-08-31T00:00:09;5.90;;;2.90;;
70049;SDS011;57391;51.306;22.680;2023-08-31T00:02:59;6.00;;;3.10;;
70049;SDS011;57391;51.306;22.680;2023-08-31T00:05:26;6.30;;;3.20;;
70049;SDS011;57391;51.306;22.680;2023-08-31T00:07:55;5.10;;;2.80;;
70049;SDS011;57391;51.306;22.680;2023-08-31T00:10:22;5.50;;;3.00;;
70049;SDS011;57391;51.306;22.680;2023-08-31T00:12:50;6.10;;;3.40;;
70049;SDS011;57391;51.306;22.680;2023-08-31T00:15:18;5.50;;;3.10;;
70049;SDS011;57391;51.306;22.680;2023-08-31T00:17:44;6.40;;;3.20;;
70049;SDS011;57391;51.306;22.680;2023-08-31T00:20:11;5.50;;;3.10;;
70049;SDS011;57391;51.306;22.680;2023-08-31T00:22:39;5.00;;;2.90;;
70049;SDS011;57391;51.306;22.680;2023-08-31T00:25:06;5.60;;;3.20;;
70049;SDS011;57391;51.306;22.680;2023-08-31T00:27:35;5.80;;;3.20;;
70049;SDS011;57391;51.306;22.680;2023-08-31T00:30:05;5.40;;;3.10;;
70049;SDS011;57391;51.306;22.680;2023-08-31T00:32:34;5.00;;;2.90;;
70049;SDS011;57391;51.306;22.680;2023-08-31T00:35:01;6.60;;;3.40;;
70049;SDS011;57391;51.306;22.680;2023-08-31T00:37:30;6.50;;;3.30;;
70049;SDS011;57391;51.306;22.680;2023-08-31T00:39:57;5.50;;;3.40;;
70049;SDS011;57391;51.306;22.680;2023-08-31T00:42:23;6.10;;;3.50;;
70049;SDS011;57391;51.306;22.680;2023-08-31T00:44:52;5.70;;;3.40;;
70049;SDS011;57391;51.306;22.680;2023-08-31T00:47:19;6.70;;;3.50;;
70049;SDS011;57391;51.306;22.680;2023-08-31T00:49:47;5.70;;;3.10;;
70049;SDS011;57391;51.306;22.680;2023-08-31T00:52:15;7.40;;;3.60;;
70049;SDS011;57391;51.306;22.680;2023-08-31T00:54:42;7.50;;;3.70;;
70049;SDS011;57391;51.306;22.680;2023-08-31T00:57:09;8.80;;;3.90;;
70049;SDS011;57391;51.306;22.680;2023-08-31T00:59:36;6.10;;;3.60;;
70049;SDS011;57391;51.306;22.680;2023-08-31T01:02:07;6.50;;;3.70;;
70049;SDS011;57391;51.306;22.680;2023-08-31T01:04:52;6.40;;;3.40;;
70049;SDS011;57391;51.306;22.680;2023-08-31T01:08:36;6.50;;;3.80;;
70049;SDS011;57391;51.306;22.680;2023-08-31T01:14:25;6.80;;;3.70;;
70049;SDS011;57391;51.306;22.680;2023-08-31T01:16:59;8.10;;;4.10;;
70049;SDS011;57391;51.306;22.680;2023-08-31T01:19:50;7.90;;;4.00;;
70049;SDS011;57391;51.306;22.680;2023-08-31T01:22:30;7.30;;;3.60;;
70049;SDS011;57391;51.306;22.680;2023-08-31T01:25:08;7.20;;;3.80;;
70049;SDS011;57391;51.306;22.680;2023-08-31T01:27:36;6.80;;;3.80;;
70049;SDS011;57391;51.306;22.680;2023-08-31T01:30:05;6.80;;;3.70;;
70049;SDS011;57391;51.306;22.680;2023-08-31T01:32:33;7.00;;;3.90;;
70049;SDS011;57391;51.306;22.680;2023-08-31T01:35:02;9.70;;;4.00;;
70049;SDS011;57391;51.306;22.680;2023-08-31T01:37:44;7.30;;;3.90;;
70049;SDS011;57391;51.306;22.680;2023-08-31T01:40:17;7.10;;;4.00;;
70049;SDS011;57391;51.306;22.680;2023-08-31T01:42:50;8.10;;;4.20;;
70049;SDS011;57391;51.306;22.680;2023-08-31T01:45:20;7.10;;;4.00;;
70049;SDS011;57391;51.306;22.680;2023-08-31T01:47:49;7.60;;;4.20;;
70049;SDS011;57391;51.306;22.680;2023-08-31T01:50:18;8.30;;;4.10;;
70049;SDS011;57391;51.306;22.680;2023-08-31T01:52:46;10.10;;;3.80;;
70049;SDS011;57391;51.306;22.680;2023-08-31T01:55:12;7.60;;;4.10;;
70049;SDS011;57391;51.306;22.680;2023-08-31T01:57:42;7.60;;;4.20;;
70049;SDS011;57391;51.306;22.680;2023-08-31T02:00:14;6.70;;;3.80;;
70049;SDS011;57391;51.306;22.680;2023-08-31T02:02:42;8.50;;;4.40;;
70049;SDS011;57391;51.306;22.680;2023-08-31T02:05:09;9.20;;;5.00;;
70049;SDS011;57391;51.306;22.680;2023-08-31T02:07:36;9.00;;;5.30;;
70049;SDS011;57391;51.306;22.680;2023-08-31T02:10:04;8.40;;;4.90;;
70049;SDS011;57391;51.306;22.680;2023-08-31T02:12:33;9.50;;;5.00;;
70049;SDS011;57391;51.306;22.680;2023-08-31T02:15:00;10.20;;;5.10;;
70049;SDS011;57391;51.306;22.680;2023-08-31T02:17:27;9.30;;;5.50;;
70049;SDS011;57391;51.306;22.680;2023-08-31T02:19:54;11.60;;;5.70;;
70049;SDS011;57391;51.306;22.680;2023-08-31T02:22:22;11.90;;;5.60;;
70049;SDS011;57391;51.306;22.680;2023-08-31T02:24:49;10.30;;;6.00;;
70049;SDS011;57391;51.306;22.680;2023-08-31T02:27:15;11.80;;;6.40;;
70049;SDS011;57391;51.306;22.680;2023-08-31T02:29:43;13.20;;;6.50;;
70049;SDS011;57391;51.306;22.680;2023-08-31T02:32:10;14.80;;;7.30;;
70049;SDS011;57391;51.306;22.680;2023-08-31T02:34:37;15.10;;;7.70;;
70049;SDS011;57391;51.306;22.680;2023-08-31T02:37:06;13.20;;;7.50;;
70049;SDS011;57391;51.306;22.680;2023-08-31T02:39:33;11.70;;;7.40;;
70049;SDS011;57391;51.306;22.680;2023-08-31T02:41:59;13.70;;;7.20;;
70049;SDS011;57391;51.306;22.680;2023-08-31T02:44:26;11.70;;;7.00;;
70049;SDS011;57391;51.306;22.680;2023-08-31T02:46:53;15.80;;;7.10;;
70049;SDS011;57391;51.306;22.680;2023-08-31T02:49:23;11.80;;;6.50;;
70049;SDS011;57391;51.306;22.680;2023-08-31T02:51:50;12.10;;;6.80;;
70049;SDS011;57391;51.306;22.680;2023-08-31T02:54:17;11.40;;;6.50;;
70049;SDS011;57391;51.306;22.680;2023-08-31T02:56:45;11.40;;;6.10;;
70049;SDS011;57391;51.306;22.680;2023-08-31T02:59:12;10.50;;;6.60;;
70049;SDS011;57391;51.306;22.680;2023-08-31T03:01:39;15.00;;;7.50;;
70049;SDS011;57391;51.306;22.680;2023-08-31T03:04:06;11.80;;;6.90;;
70049;SDS011;57391;51.306;22.680;2023-08-31T03:06:33;12.70;;;7.70;;
70049;SDS011;57391;51.306;22.680;2023-08-31T03:09:00;12.90;;;7.80;;
70049;SDS011;57391;51.306;22.680;2023-08-31T03:11:28;13.10;;;8.50;;
70049;SDS011;57391;51.306;22.680;2023-08-31T03:13:57;14.80;;;8.80;;
70049;SDS011;57391;51.306;22.680;2023-08-31T03:16:24;14.30;;;8.60;;
70049;SDS011;57391;51.306;22.680;2023-08-31T03:18:51;16.00;;;9.60;;
70049;SDS011;57391;51.306;22.680;2023-08-31T03:21:18;15.30;;;8.70;;
70049;SDS011;57391;51.306;22.680;2023-08-31T03:23:46;15.90;;;9.20;;
70049;SDS011;57391;51.306;22.680;2023-08-31T03:26:13;16.00;;;8.90;;
70049;SDS011;57391;51.306;22.680;2023-08-31T03:28:40;16.30;;;8.80;;
70049;SDS011;57391;51.306;22.680;2023-08-31T03:31:08;15.00;;;8.60;;
70049;SDS011;57391;51.306;22.680;2023-08-31T03:33:35;13.90;;;8.90;;
70049;SDS011;57391;51.306;22.680;2023-08-31T03:36:03;16.20;;;10.30;;
70049;SDS011;57391;51.306;22.680;2023-08-31T03:38:34;17.80;;;9.60;;
70049;SDS011;57391;51.306;22.680;2023-08-31T03:41:04;16.60;;;10.60;;
70049;SDS011;57391;51.306;22.680;2023-08-31T03:43:32;17.10;;;10.30;;
70049;SDS011;57391;51.306;22.680;2023-08-31T03:46:00;17.10;;;10.00;;
70049;SDS011;57391;51.306;22.680;2023-08-31T03:48:27;16.80;;;9.90;;
70049;SDS011;57391;51.306;22.680;2023-08-31T03:50:54;19.10;;;10.80;;
70049;SDS011;57391;51.306;22.680;2023-08-31T03:53:22;19.50;;;10.40;;
70049;SDS011;57391;51.306;22.680;2023-08-31T03:55:51;21.30;;;11.60;;
70049;SDS011;57391;51.306;22.680;2023-08-31T03:58:18;20.00;;;11.40;;
70049;SDS011;57391;51.306;22.680;2023-08-31T04:00:50;20.20;;;11.70;;
70049;SDS011;57391;51.306;22.680;2023-08-31T04:03:18;22.20;;;11.60;;
70049;SDS011;57391;51.306;22.680;2023-08-31T04:05:47;23.20;;;12.30;;
70049;SDS011;57391;51.306;22.680;2023-08-31T04:08:14;22.70;;;12.10;;
70049;SDS011;57391;51.306;22.680;2023-08-31T04:10:41;22.30;;;11.40;;
70049;SDS011;57391;51.306;22.680;2023-08-31T04:13:08;23.60;;;11.50;;
70049;SDS011;57391;51.306;22.680;2023-08-31T04:15:35;24.20;;;12.20;;
70049;SDS011;57391;51.306;22.680;2023-08-31T04:18:01;24.10;;;12.10;;
70049;SDS011;57391;51.306;22.680;2023-08-31T04:20:28;24.20;;;12.20;;
70049;SDS011;57391;51.306;22.680;2023-08-31T04:22:55;23.70;;;12.50;;
70049;SDS011;57391;51.306;22.680;2023-08-31T04:25:22;26.20;;;12.30;;
70049;SDS011;57391;51.306;22.680;2023-08-31T04:27:49;25.40;;;11.90;;
70049;SDS011;57391;51.306;22.680;2023-08-31T04:30:16;26.00;;;12.80;;
70049;SDS011;57391;51.306;22.680;2023-08-31T04:32:43;25.30;;;11.60;;
70049;SDS011;57391;51.306;22.680;2023-08-31T04:35:10;23.40;;;12.20;;
70049;SDS011;57391;51.306;22.680;2023-08-31T04:37:37;23.50;;;11.50;;
70049;SDS011;57391;51.306;22.680;2023-08-31T04:40:04;25.80;;;13.20;;
70049;SDS011;57391;51.306;22.680;2023-08-31T04:42:32;26.80;;;12.10;;
70049;SDS011;57391;51.306;22.680;2023-08-31T04:44:58;26.40;;;12.50;;
70049;SDS011;57391;51.306;22.680;2023-08-31T04:47:25;27.70;;;12.30;;
70049;SDS011;57391;51.306;22.680;2023-08-31T04:49:52;26.50;;;12.40;;
70049;SDS011;57391;51.306;22.680;2023-08-31T04:52:19;25.40;;;12.60;;
70049;SDS011;57391;51.306;22.680;2023-08-31T04:54:45;23.40;;;12.00;;
70049;SDS011;57391;51.306;22.680;2023-08-31T04:57:12;23.00;;;11.00;;
70049;SDS011;57391;51.306;22.680;2023-08-31T04:59:39;20.30;;;10.50;;
70049;SDS011;57391;51.306;22.680;2023-08-31T05:02:06;20.50;;;10.00;;
70049;SDS011;57391;51.306;22.680;2023-08-31T05:04:32;18.60;;;9.40;;
70049;SDS011;57391;51.306;22.680;2023-08-31T05:06:59;17.40;;;9.50;;
70049;SDS011;57391;51.306;22.680;2023-08-31T05:09:26;14.70;;;8.10;;
70049;SDS011;57391;51.306;22.680;2023-08-31T05:11:53;16.20;;;8.30;;
70049;SDS011;57391;51.306;22.680;2023-08-31T05:14:20;13.00;;;7.70;;
70049;SDS011;57391;51.306;22.680;2023-08-31T05:16:47;12.70;;;7.80;;
70049;SDS011;57391;51.306;22.680;2023-08-31T05:19:14;12.60;;;7.30;;
70049;SDS011;57391;51.306;22.680;2023-08-31T05:21:40;12.10;;;7.60;;
70049;SDS011;57391;51.306;22.680;2023-08-31T05:24:07;12.00;;;7.80;;
70049;SDS011;57391;51.306;22.680;2023-08-31T05:26:34;12.00;;;7.30;;
70049;SDS011;57391;51.306;22.680;2023-08-31T05:29:01;13.50;;;8.10;;
70049;SDS011;57391;51.306;22.680;2023-08-31T05:31:31;12.80;;;7.80;;
70049;SDS011;57391;51.306;22.680;2023-08-31T05:33:58;12.20;;;7.60;;
70049;SDS011;57391;51.306;22.680;2023-08-31T05:36:25;12.60;;;8.20;;
70049;SDS011;57391;51.306;22.680;2023-08-31T05:38:52;11.30;;;7.50;;
70049;SDS011;57391;51.306;22.680;2023-08-31T05:41:19;13.10;;;7.80;;
70049;SDS011;57391;51.306;22.680;2023-08-31T05:43:47;13.80;;;8.00;;
70049;SDS011;57391;51.306;22.680;2023-08-31T05:46:14;13.20;;;8.30;;
70049;SDS011;57391;51.306;22.680;2023-08-31T05:48:41;11.20;;;7.30;;
70049;SDS011;57391;51.306;22.680;2023-08-31T05:51:08;12.20;;;7.60;;
70049;SDS011;57391;51.306;22.680;2023-08-31T05:53:35;11.50;;;7.30;;
70049;SDS011;57391;51.306;22.680;2023-08-31T05:56:02;10.60;;;6.50;;
70049;SDS011;57391;51.306;22.680;2023-08-31T05:58:31;10.50;;;6.70;;
70049;SDS011;57391;51.306;22.680;2023-08-31T06:01:03;10.90;;;6.50;;
70049;SDS011;57391;51.306;22.680;2023-08-31T06:03:31;10.80;;;6.80;;
70049;SDS011;57391;51.306;22.680;2023-08-31T06:05:59;11.50;;;6.80;;
70049;SDS011;57391;51.306;22.680;2023-08-31T06:08:26;10.50;;;6.90;;
70049;SDS011;57391;51.306;22.680;2023-08-31T06:10:53;12.40;;;7.10;;
70049;SDS011;57391;51.306;22.680;2023-08-31T06:13:20;11.70;;;7.50;;
70049;SDS011;57391;51.306;22.680;2023-08-31T06:15:47;12.50;;;7.50;;
70049;SDS011;57391;51.306;22.680;2023-08-31T06:18:14;13.20;;;7.70;;
70049;SDS011;57391;51.306;22.680;2023-08-31T06:20:40;9.80;;;6.80;;
70049;SDS011;57391;51.306;22.680;2023-08-31T06:23:10;10.90;;;6.80;;
70049;SDS011;57391;51.306;22.680;2023-08-31T06:25:38;11.20;;;6.40;;
70049;SDS011;57391;51.306;22.680;2023-08-31T06:28:05;10.10;;;6.50;;
70049;SDS011;57391;51.306;22.680;2023-08-31T06:30:35;10.70;;;6.70;;
70049;SDS011;57391;51.306;22.680;2023-08-31T06:33:02;11.20;;;6.40;;
70049;SDS011;57391;51.306;22.680;2023-08-31T06:35:29;10.70;;;6.60;;
70049;SDS011;57391;51.306;22.680;2023-08-31T06:37:57;10.50;;;6.10;;
70049;SDS011;57391;51.306;22.680;2023-08-31T06:40:24;12.10;;;7.10;;
70049;SDS011;57391;51.306;22.680;2023-08-31T06:42:51;11.50;;;6.80;;
70049;SDS011;57391;51.306;22.680;2023-08-31T06:45:18;11.20;;;7.20;;
70049;SDS011;57391;51.306;22.680;2023-08-31T06:47:45;10.70;;;7.00;;
70049;SDS011;57391;51.306;22.680;2023-08-31T06:50:12;11.70;;;7.00;;
70049;SDS011;57391;51.306;22.680;2023-08-31T06:52:39;10.50;;;6.20;;
70049;SDS011;57391;51.306;22.680;2023-08-31T06:55:08;11.80;;;7.00;;
70049;SDS011;57391;51.306;22.680;2023-08-31T06:57:37;14.80;;;7.30;;
70049;SDS011;57391;51.306;22.680;2023-08-31T07:00:04;10.90;;;6.60;;
70049;SDS011;57391;51.306;22.680;2023-08-31T07:02:34;8.40;;;6.00;;
70049;SDS011;57391;51.306;22.680;2023-08-31T07:05:04;8.90;;;6.20;;
70049;SDS011;57391;51.306;22.680;2023-08-31T07:07:31;9.40;;;6.00;;
70049;SDS011;57391;51.306;22.680;2023-08-31T07:09:58;8.20;;;5.40;;
70049;SDS011;57391;51.306;22.680;2023-08-31T07:12:26;7.90;;;5.20;;
70049;SDS011;57391;51.306;22.680;2023-08-31T07:14:52;8.00;;;5.40;;
70049;SDS011;57391;51.306;22.680;2023-08-31T07:17:19;8.20;;;5.00;;
70049;SDS011;57391;51.306;22.680;2023-08-31T07:19:46;9.10;;;5.50;;
70049;SDS011;57391;51.306;22.680;2023-08-31T07:22:13;7.40;;;4.50;;
70049;SDS011;57391;51.306;22.680;2023-08-31T07:24:40;8.10;;;4.70;;
70049;SDS011;57391;51.306;22.680;2023-08-31T07:27:07;7.80;;;4.70;;
70049;SDS011;57391;51.306;22.680;2023-08-31T07:29:33;6.90;;;4.40;;
70049;SDS011;57391;51.306;22.680;2023-08-31T07:32:00;7.20;;;4.10;;
70049;SDS011;57391;51.306;22.680;2023-08-31T07:34:27;8.40;;;5.30;;
70049;SDS011;57391;51.306;22.680;2023-08-31T07:36:54;8.40;;;4.90;;
70049;SDS011;57391;51.306;22.680;2023-08-31T07:39:21;7.70;;;4.90;;
70049;SDS011;57391;51.306;22.680;2023-08-31T07:41:48;7.50;;;4.90;;
70049;SDS011;57391;51.306;22.680;2023-08-31T07:44:14;6.90;;;4.40;;
70049;SDS011;57391;51.306;22.680;2023-08-31T07:46:41;7.50;;;3.80;;
70049;SDS011;57391;51.306;22.680;2023-08-31T07:49:08;7.00;;;3.90;;
70049;SDS011;57391;51.306;22.680;2023-08-31T07:51:35;6.80;;;3.40;;
70049;SDS011;57391;51.306;22.680;2023-08-31T07:54:02;5.50;;;3.30;;
70049;SDS011;57391;51.306;22.680;2023-08-31T07:56:29;6.70;;;3.50;;
70049;SDS011;57391;51.306;22.680;2023-08-31T07:58:56;6.00;;;3.80;;
70049;SDS011;57391;51.306;22.680;2023-08-31T08:01:23;5.90;;;3.40;;
70049;SDS011;57391;51.306;22.680;2023-08-31T08:03:50;5.90;;;3.50;;
70049;SDS011;57391;51.306;22.680;2023-08-31T08:06:17;7.50;;;3.40;;
70049;SDS011;57391;51.306;22.680;2023-08-31T08:08:44;7.20;;;3.50;;
70049;SDS011;57391;51.306;22.680;2023-08-31T08:11:11;6.20;;;3.30;;
70049;SDS011;57391;51.306;22.680;2023-08-31T08:13:38;6.70;;;3.50;;
70049;SDS011;57391;51.306;22.680;2023-08-31T08:16:04;5.80;;;3.60;;
70049;SDS011;57391;51.306;22.680;2023-08-31T08:18:31;5.60;;;3.20;;
70049;SDS011;57391;51.306;22.680;2023-08-31T08:20:58;6.00;;;3.00;;
70049;SDS011;57391;51.306;22.680;2023-08-31T08:23:25;6.20;;;3.30;;
70049;SDS011;57391;51.306;22.680;2023-08-31T08:25:52;4.90;;;3.00;;
70049;SDS011;57391;51.306;22.680;2023-08-31T08:28:19;4.90;;;3.00;;
70049;SDS011;57391;51.306;22.680;2023-08-31T08:30:45;5.20;;;2.70;;
70049;SDS011;57391;51.306;22.680;2023-08-31T08:33:12;4.80;;;3.00;;
70049;SDS011;57391;51.306;22.680;2023-08-31T08:35:39;4.00;;;2.70;;
70049;SDS011;57391;51.306;22.680;2023-08-31T08:38:06;4.40;;;2.40;;
70049;SDS011;57391;51.306;22.680;2023-08-31T08:40:34;4.20;;;2.70;;
70049;SDS011;57391;51.306;22.680;2023-08-31T08:43:05;4.30;;;2.80;;
70049;SDS011;57391;51.306;22.680;2023-08-31T08:45:36;4.60;;;2.60;;
70049;SDS011;57391;51.306;22.680;2023-08-31T08:48:05;3.80;;;2.50;;
70049;SDS011;57391;51.306;22.680;2023-08-31T08:50:34;4.80;;;2.70;;
70049;SDS011;57391;51.306;22.680;2023-08-31T08:53:03;5.10;;;2.80;;
70049;SDS011;57391;51.306;22.680;2023-08-31T08:55:32;4.50;;;2.60;;
70049;SDS011;57391;51.306;22.680;2023-08-31T08:57:59;3.70;;;2.30;;
70049;SDS011;57391;51.306;22.680;2023-08-31T09:00:27;4.10;;;2.50;;
70049;SDS011;57391;51.306;22.680;2023-08-31T09:02:54;4.90;;;2.90;;
70049;SDS011;57391;51.306;22.680;2023-08-31T09:05:22;4.70;;;2.90;;
70049;SDS011;57391;51.306;22.680;2023-08-31T09:08:08;4.60;;;2.50;;
70049;SDS011;57391;51.306;22.680;2023-08-31T09:10:43;4.60;;;2.50;;
70049;SDS011;57391;51.306;22.680;2023-08-31T09:13:12;3.70;;;2.30;;
70049;SDS011;57391;51.306;22.680;2023-08-31T09:15:44;6.40;;;2.70;;
70049;SDS011;57391;51.306;22.680;2023-08-31T09:18:26;4.80;;;2.50;;
70049;SDS011;57391;51.306;22.680;2023-08-31T09:20:55;4.10;;;2.20;;
70049;SDS011;57391;51.306;22.680;2023-08-31T09:23:23;4.20;;;2.20;;
70049;SDS011;57391;51.306;22.680;2023-08-31T09:25:52;3.10;;;2.00;;
70049;SDS011;57391;51.306;22.680;2023-08-31T09:28:25;3.30;;;2.00;;
70049;SDS011;57391;51.306;22.680;2023-08-31T09:31:04;4.50;;;2.30;;
70049;SDS011;57391;51.306;22.680;2023-08-31T09:33:34;3.60;;;2.00;;
70049;SDS011;57391;51.306;22.680;2023-08-31T09:36:06;3.70;;;2.20;;
70049;SDS011;57391;51.306;22.680;2023-08-31T09:38:44;3.40;;;2.00;;
70049;SDS011;57391;51.306;22.680;2023-08-31T09:41:12;3.70;;;2.10;;
70049;SDS011;57391;51.306;22.680;2023-08-31T09:43:39;3.30;;;2.00;;
70049;SDS011;57391;51.306;22.680;2023-08-31T09:46:06;3.50;;;2.00;;
70049;SDS011;57391;51.306;22.680;2023-08-31T09:48:35;3.40;;;2.00;;
70049;SDS011;57391;51.306;22.680;2023-08-31T09:51:04;3.30;;;2.00;;
70049;SDS011;57391;51.306;22.680;2023-08-31T09:53:31;2.90;;;1.90;;
70049;SDS011;57391;51.306;22.680;2023-08-31T09:55:59;3.80;;;2.20;;
70049;SDS011;57391;51.306;22.680;2023-08-31T09:58:28;5.10;;;2.10;;
70049;SDS011;57391;51.306;22.680;2023-08-31T10:00:57;3.10;;;1.90;;
70049;SDS011;57391;51.306;22.680;2023-08-31T10:03:26;4.40;;;2.10;;
70049;SDS011;57391;51.306;22.680;2023-08-31T10:05:54;3.80;;;1.90;;
70049;SDS011;57391;51.306;22.680;2023-08-31T10:08:23;3.20;;;1.90;;
70049;SDS011;57391;51.306;22.680;2023-08-31T10:10:51;3.10;;;1.90;;
70049;SDS011;57391;51.306;22.680;2023-08-31T10:13:19;4.20;;;1.90;;
70049;SDS011;57391;51.306;22.680;2023-08-31T10:15:48;2.30;;;1.50;;
70049;SDS011;57391;51.306;22.680;2023-08-31T10:18:16;2.70;;;1.70;;
70049;SDS011;57391;51.306;22.680;2023-08-31T10:20:43;3.40;;;2.00;;
70049;SDS011;57391;51.306;22.680;2023-08-31T10:23:12;2.90;;;1.90;;
70049;SDS011;57391;51.306;22.680;2023-08-31T10:28:19;4.70;;;2.00;;
70049;SDS011;57391;51.306;22.680;2023-08-31T10:33:34;2.90;;;1.80;;
70049;SDS011;57391;51.306;22.680;2023-08-31T10:39:20;4.00;;;1.70;;
70049;SDS011;57391;51.306;22.680;2023-08-31T10:41:53;2.50;;;1.70;;
70049;SDS011;57391;51.306;22.680;2023-08-31T10:44:25;2.60;;;1.60;;
70049;SDS011;57391;51.306;22.680;2023-08-31T10:46:53;5.60;;;1.60;;
70049;SDS011;57391;51.306;22.680;2023-08-31T10:49:22;2.30;;;1.60;;
70049;SDS011;57391;51.306;22.680;2023-08-31T10:51:55;2.80;;;1.60;;
70049;SDS011;57391;51.306;22.680;2023-08-31T10:54:24;2.80;;;1.50;;
70049;SDS011;57391;51.306;22.680;2023-08-31T10:59:53;2.10;;;1.50;;
70049;SDS011;57391;51.306;22.680;2023-08-31T11:05:06;1.90;;;1.30;;
70049;SDS011;57391;51.306;22.680;2023-08-31T11:07:34;2.50;;;1.30;;
70049;SDS011;57391;51.306;22.680;2023-08-31T11:10:18;4.70;;;1.50;;
70049;SDS011;57391;51.306;22.680;2023-08-31T11:12:56;2.20;;;1.30;;
70049;SDS011;57391;51.306;22.680;2023-08-31T11:15:26;1.90;;;1.30;;
70049;SDS011;57391;51.306;22.680;2023-08-31T11:17:54;2.60;;;1.40;;
70049;SDS011;57391;51.306;22.680;2023-08-31T11:20:24;3.00;;;1.50;;
70049;SDS011;57391;51.306;22.680;2023-08-31T11:22:58;2.60;;;1.70;;
70049;SDS011;57391;51.306;22.680;2023-08-31T11:25:25;2.20;;;1.40;;
70049;SDS011;57391;51.306;22.680;2023-08-31T11:30:25;2.10;;;1.50;;
70049;SDS011;57391;51.306;22.680;2023-08-31T11:32:54;3.30;;;1.50;;
70049;SDS011;57391;51.306;22.680;2023-08-31T11:35:22;3.40;;;1.50;;
70049;SDS011;57391;51.306;22.680;2023-08-31T11:37:51;2.80;;;1.60;;
70049;SDS011;57391;51.306;22.680;2023-08-31T11:40:22;3.40;;;1.50;;
70049;SDS011;57391;51.306;22.680;2023-08-31T11:42:49;2.90;;;1.70;;
70049;SDS011;57391;51.306;22.680;2023-08-31T11:45:19;2.00;;;1.40;;
70049;SDS011;57391;51.306;22.680;2023-08-31T11:47:50;4.90;;;1.60;;
70049;SDS011;57391;51.306;22.680;2023-08-31T11:50:18;2.10;;;1.50;;
70049;SDS011;57391;51.306;22.680;2023-08-31T11:52:46;2.40;;;1.50;;
70049;SDS011;57391;51.306;22.680;2023-08-31T11:55:15;2.40;;;1.60;;
70049;SDS011;57391;51.306;22.680;2023-08-31T11:57:49;2.10;;;1.30;;
70049;SDS011;57391;51.306;22.680;2023-08-31T12:00:18;2.40;;;1.30;;
70049;SDS011;57391;51.306;22.680;2023-08-31T12:03:00;2.50;;;1.50;;
70049;SDS011;57391;51.306;22.680;2023-08-31T12:05:29;2.90;;;1.60;;
70049;SDS011;57391;51.306;22.680;2023-08-31T12:08:10;2.50;;;1.40;;
70049;SDS011;57391;51.306;22.680;2023-08-31T12:10:40;2.40;;;1.50;;
70049;SDS011;57391;51.306;22.680;2023-08-31T12:13:08;2.10;;;1.30;;
70049;SDS011;57391;51.306;22.680;2023-08-31T12:15:36;3.40;;;1.30;;
70049;SDS011;57391;51.306;22.680;2023-08-31T12:18:21;2.60;;;1.70;;
70049;SDS011;57391;51.306;22.680;2023-08-31T12:20:50;3.50;;;1.40;;
70049;SDS011;57391;51.306;22.680;2023-08-31T12:23:18;2.30;;;1.40;;
70049;SDS011;57391;51.306;22.680;2023-08-31T12:25:50;3.90;;;1.40;;
70049;SDS011;57391;51.306;22.680;2023-08-31T12:28:19;2.70;;;1.70;;
70049;SDS011;57391;51.306;22.680;2023-08-31T12:30:51;2.20;;;1.60;;
70049;SDS011;57391;51.306;22.680;2023-08-31T12:33:20;2.70;;;1.50;;
70049;SDS011;57391;51.306;22.680;2023-08-31T12:35:47;3.40;;;1.70;;
70049;SDS011;57391;51.306;22.680;2023-08-31T12:38:14;3.70;;;2.40;;
70049;SDS011;57391;51.306;22.680;2023-08-31T12:40:41;2.80;;;1.60;;
70049;SDS011;57391;51.306;22.680;2023-08-31T12:43:08;3.70;;;1.90;;
70049;SDS011;57391;51.306;22.680;2023-08-31T12:45:36;2.70;;;1.70;;
70049;SDS011;57391;51.306;22.680;2023-08-31T12:48:05;7.40;;;6.20;;
70049;SDS011;57391;51.306;22.680;2023-08-31T12:50:32;7.10;;;5.30;;
70049;SDS011;57391;51.306;22.680;2023-08-31T12:52:58;4.00;;;2.20;;
70049;SDS011;57391;51.306;22.680;2023-08-31T12:55:25;4.30;;;2.00;;
70049;SDS011;57391;51.306;22.680;2023-08-31T12:57:52;4.00;;;1.70;;
70049;SDS011;57391;51.306;22.680;2023-08-31T13:00:19;2.60;;;1.30;;
70049;SDS011;57391;51.306;22.680;2023-08-31T13:02:46;3.30;;;1.50;;
70049;SDS011;57391;51.306;22.680;2023-08-31T13:05:13;2.50;;;1.50;;
70049;SDS011;57391;51.306;22.680;2023-08-31T13:07:40;2.80;;;1.70;;
70049;SDS011;57391;51.306;22.680;2023-08-31T13:10:07;4.00;;;1.50;;
70049;SDS011;57391;51.306;22.680;2023-08-31T13:12:34;2.60;;;1.30;;
70049;SDS011;57391;51.306;22.680;2023-08-31T13:15:01;5.00;;;1.80;;
70049;SDS011;57391;51.306;22.680;2023-08-31T13:17:28;4.30;;;1.60;;
70049;SDS011;57391;51.306;22.680;2023-08-31T13:19:56;3.60;;;1.70;;
70049;SDS011;57391;51.306;22.680;2023-08-31T13:22:24;3.40;;;1.50;;
70049;SDS011;57391;51.306;22.680;2023-08-31T13:24:52;3.60;;;1.70;;
70049;SDS011;57391;51.306;22.680;2023-08-31T13:27:18;3.20;;;1.70;;
70049;SDS011;57391;51.306;22.680;2023-08-31T13:29:45;1.90;;;1.40;;
70049;SDS011;57391;51.306;22.680;2023-08-31T13:32:12;3.70;;;1.60;;
70049;SDS011;57391;51.306;22.680;2023-08-31T13:34:40;3.40;;;1.60;;
70049;SDS011;57391;51.306;22.680;2023-08-31T13:37:07;3.00;;;1.60;;
70049;SDS011;57391;51.306;22.680;2023-08-31T13:39:35;4.40;;;1.70;;
70049;SDS011;57391;51.306;22.680;2023-08-31T13:42:03;3.90;;;2.10;;
70049;SDS011;57391;51.306;22.680;2023-08-31T13:44:33;3.10;;;1.60;;
70049;SDS011;57391;51.306;22.680;2023-08-31T13:47:00;4.40;;;1.80;;
70049;SDS011;57391;51.306;22.680;2023-08-31T13:49:29;2.70;;;1.60;;
70049;SDS011;57391;51.306;22.680;2023-08-31T13:51:56;3.40;;;1.40;;
70049;SDS011;57391;51.306;22.680;2023-08-31T13:54:23;3.10;;;1.50;;
70049;SDS011;57391;51.306;22.680;2023-08-31T13:56:51;3.70;;;1.90;;
70049;SDS011;57391;51.306;22.680;2023-08-31T13:59:18;2.90;;;1.70;;
70049;SDS011;57391;51.306;22.680;2023-08-31T14:01:45;3.70;;;1.90;;
70049;SDS011;57391;51.306;22.680;2023-08-31T14:04:12;2.70;;;1.60;;
70049;SDS011;57391;51.306;22.680;2023-08-31T14:06:39;2.90;;;1.80;;
70049;SDS011;57391;51.306;22.680;2023-08-31T14:09:06;3.50;;;1.80;;
70049;SDS011;57391;51.306;22.680;2023-08-31T14:11:34;4.30;;;1.60;;
70049;SDS011;57391;51.306;22.680;2023-08-31T14:14:06;2.90;;;1.80;;
70049;SDS011;57391;51.306;22.680;2023-08-31T14:16:37;3.60;;;1.70;;
70049;SDS011;57391;51.306;22.680;2023-08-31T14:19:05;3.80;;;1.70;;
70049;SDS011;57391;51.306;22.680;2023-08-31T14:21:32;3.60;;;1.70;;
70049;SDS011;57391;51.306;22.680;2023-08-31T14:23:59;11.10;;;3.70;;
70049;SDS011;57391;51.306;22.680;2023-08-31T14:26:26;5.10;;;2.00;;
70049;SDS011;57391;51.306;22.680;2023-08-31T14:28:52;3.00;;;1.80;;
70049;SDS011;57391;51.306;22.680;2023-08-31T14:31:19;4.10;;;1.80;;
70049;SDS011;57391;51.306;22.680;2023-08-31T14:33:46;3.00;;;1.80;;
70049;SDS011;57391;51.306;22.680;2023-08-31T14:36:14;3.10;;;1.70;;
70049;SDS011;57391;51.306;22.680;2023-08-31T14:38:42;4.40;;;1.90;;
70049;SDS011;57391;51.306;22.680;2023-08-31T14:41:09;3.60;;;1.90;;
70049;SDS011;57391;51.306;22.680;2023-08-31T14:43:36;3.50;;;2.00;;
70049;SDS011;57391;51.306;22.680;2023-08-31T14:46:03;5.30;;;2.30;;
70049;SDS011;57391;51.306;22.680;2023-08-31T14:48:30;3.80;;;2.10;;
70049;SDS011;57391;51.306;22.680;2023-08-31T14:50:58;4.20;;;2.00;;
70049;SDS011;57391;51.306;22.680;2023-08-31T14:53:26;3.50;;;2.30;;
70049;SDS011;57391;51.306;22.680;2023-08-31T14:55:54;4.60;;;2.10;;